This is the latest recevied weather packets stored in our database for station/object N7CEE. If no packets are shown the sender has not sent any weather packets the latest 1 day(s).
| Time | Temp. | Humidity | Pressure | Rain* | Wind** | Luminosity | Snow |
|---|---|---|---|---|---|---|---|
| 1778093680 | 16.67° C | 32% | 1023.7 hPa | 0 mm | - | 912 W/m² | - |
| 1778093377 | 17.22° C | 30% | 1023.7 hPa | 0 mm | - | 979 W/m² | - |
| 1778092164 | 16.67° C | 32% | 1023.9 hPa | 0 mm | - | 880 W/m² | - |
| 1778091861 | 16.67° C | 33% | 1023.9 hPa | 0 mm | - | 844 W/m² | - |
| 1778090649 | 15° C | 34% | 1024 hPa | 0 mm | - | 808 W/m² | - |
| 1778090346 | 15.56° C | 35% | 1024.1 hPa | 0 mm | - | 801 W/m² | - |
| 1778088528 | 14.44° C | 36% | 1024 hPa | 0 mm | - | 749 W/m² | - |
| 1778087922 | 14.44° C | 36% | 1023.6 hPa | 0 mm | - | 730 W/m² | - |
| 1778087619 | 14.44° C | 37% | 1023.5 hPa | 0 mm | - | 719 W/m² | - |
| 1778087012 | 13.89° C | 38% | 1023.6 hPa | 0 mm | - | 694 W/m² | - |
| 1778085796 | 12.78° C | 41% | 1023.6 hPa | 0 mm | - | 645 W/m² | - |
| 1778085494 | 12.22° C | 40% | 1023.5 hPa | 0 mm | - | 630 W/m² | - |
| 1778079518 | 7.22° C | 59% | 1023.1 hPa | 0 mm | - | 39 W/m² | - |
| 1778077098 | 5° C | 67% | 1023 hPa | 0 mm | - | 32 W/m² | - |
| 1778075583 | 1.67° C | 80% | 1023 hPa | 0 mm | - | 36 W/m² | - |
| 1778075280 | 1.11° C | 81% | 1023.1 hPa | 0 mm | - | 37 W/m² | - |
| 1778074067 | 0° C | 86% | 1022.9 hPa | 0 mm | - | 18 W/m² | - |
| 1778073159 | -1.11° C | 93% | 1023 hPa | 0 mm | - | 14 W/m² | - |
| 1778072855 | -1.11° C | 93% | 1022.9 hPa | 0 mm | - | 13 W/m² | - |
| 1778072552 | -1.11° C | 93% | 1022.8 hPa | 0 mm | - | 12 W/m² | - |
| 1778072250 | -1.11° C | 93% | 1022.9 hPa | 0 mm | - | 10 W/m² | - |
| 1778071343 | -1.11° C | 89% | 1022.5 hPa | 0 mm | - | 5 W/m² | - |
| 1778070133 | -1.11° C | 90% | 1022.4 hPa | 0 mm | - | 1 W/m² | - |
| 1778069527 | -1.11° C | 90% | 1022.1 hPa | 0 mm | - | 0 W/m² | - |
| 1778068922 | -1.11° C | 92% | 1022.1 hPa | 0 mm | - | 0 W/m² | - |
* Rain latest hour (hover to see other rain measurements)
** Current wind speed in m/s (hover to see current wind gust speed)